Cherokee — 9HBC7 — position and weather

sailwx.info

Track history (hours):
 
Tides and Currents Weather Stations Pressure Air Temp Water Temp Dewpoint Dewpoint Depression Visibility Wind Speed Wind Dir Waves Ship Positions

Cherokee

Last reported at 2014-Oct-31 13:04 UTC. Time now 2014-Oct-31 15:06 UTC.
Position N 44°18' E 036°19'.

Length 139 m; draft 3.7 m.

Type: Cargo ship. MMSI: 215059000.

Date/timePositionNaut miles runAvg speedWind from/ knotsBaromVisibWave heightAir tempDewpointWater temp
2014-Oct-31 13:04N 44°18' E 036°19'3 6.9
2014-Oct-31 12:33N 44°15' E 036°16'21 6.9
2014-Oct-31 09:31N 43°57' E 036°02'52 6.4
2014-Oct-31 01:26N 43°23' E 035°08'6 7.1
2014-Oct-31 00:31N 43°19' E 035°01'8 7.1
2014-Oct-30 23:25N 43°14' E 034°53'260 7.2
2014-Oct-29 11:33N 41°17' E 029°39'8 7.9
2014-Oct-29 10:33N 41°17' E 029°29'8 7.8
2014-Oct-29 09:33N 41°17' E 029°18'22 5.4
2014-Oct-29 05:27N 40°60' E 028°60'4 4.4
2014-Oct-29 04:31N 40°56' E 028°58'3 3.4
2014-Oct-29 03:32N 40°59' E 028°56'0 0.0
2014-Oct-29 02:26N 40°59' E 028°56'0 0.0
2014-Oct-29 01:23N 40°59' E 028°56'0 0.0
2014-Oct-29 00:29N 40°59' E 028°56'0 0.0
2014-Oct-28 23:29N 40°59' E 028°56'0 0.0
2014-Oct-28 22:05N 40°59' E 028°56'0 0.0
2014-Oct-28 21:23N 40°59' E 028°56'0 0.0
2014-Oct-28 20:29N 40°59' E 028°56'0 0.0
2014-Oct-28 19:29N 40°59' E 028°56'0 0.0
2014-Oct-28 18:29N 40°59' E 028°56'0 0.0
2014-Oct-28 17:29N 40°59' E 028°56'0 0.0
2014-Oct-28 16:33N 40°59' E 028°56'0 0.0
2014-Oct-28 15:28N 40°59' E 028°56'0 0.0
2014-Oct-28 14:16N 40°59' E 028°56'0 0.0
2014-Oct-28 13:22N 40°59' E 028°56'0 0.0
2014-Oct-28 11:23N 40°59' E 028°56'0 0.0
2014-Oct-28 08:05N 40°59' E 028°56'0 0.0
2014-Oct-26 15:27N 40°59' E 028°56'0 0.0
2014-Oct-26 14:15N 40°59' E 028°56'0 0.0
2014-Oct-26 08:26N 40°59' E 028°56'0 0.0
2014-Oct-26 07:23N 40°59' E 028°56'0 0.0
2014-Oct-26 05:29N 40°59' E 028°56'0 0.0
2014-Oct-26 04:08N 40°59' E 028°56'0 0.0
2014-Oct-26 02:32N 40°59' E 028°56'0 0.0
2014-Oct-25 14:14N 40°59' E 028°56'0 0.0
2014-Oct-25 13:22N 40°59' E 028°56'0 0.0
2014-Oct-25 12:29N 40°59' E 028°56'0 0.0
2014-Oct-25 11:29N 40°59' E 028°56'0 0.0
2014-Oct-25 10:29N 40°59' E 028°56'0 0.0
2014-Oct-25 09:29N 40°59' E 028°56'0 0.0
2014-Oct-25 08:33N 40°59' E 028°56'0 0.0
2014-Oct-25 07:32N 40°59' E 028°56'0 0.0
2014-Oct-25 06:22N 40°59' E 028°56'0 0.0
2014-Oct-25 05:16N 40°59' E 028°56'0 0.0
2014-Oct-25 04:28N 40°59' E 028°56'0 0.1
2014-Oct-25 03:16N 40°59' E 028°56'0 0.1
2014-Oct-25 02:32N 40°59' E 028°56'0 0.0
2014-Oct-25 01:26N 40°59' E 028°56'0 0.0
2014-Oct-25 00:08N 40°59' E 028°56'0 0.0
2014-Oct-24 23:26N 40°59' E 028°56'0 0.0
2014-Oct-24 21:26N 40°59' E 028°56'0 0.0
2014-Oct-24 20:08N 40°59' E 028°56'0 0.0
2014-Oct-24 19:08N 40°59' E 028°56'0 0.0
2014-Oct-24 17:32N 40°59' E 028°56'0 0.0
2014-Oct-24 16:33N 40°59' E 028°56'0 0.0
2014-Oct-24 14:26N 40°59' E 028°56'0 0.0
2014-Oct-24 13:22N 40°59' E 028°56'0 0.0
2014-Oct-24 09:25N 40°59' E 028°56'0 0.0
2014-Oct-24 08:30N 40°59' E 028°56'0 0.0
2014-Oct-24 07:18N 40°59' E 028°56'0 0.0
2014-Oct-24 05:19N 40°59' E 028°56'0 0.0
2014-Oct-24 03:19N 40°59' E 028°56'0 0.0
2014-Oct-23 19:33N 40°59' E 028°56'0 0.0
2014-Oct-23 18:21N 40°59' E 028°56'4 3.2
2014-Oct-23 17:09N 40°56' E 028°58'5 8.3
2014-Oct-23 16:33N 40°52' E 028°53'228 5.0
2014-Oct-21 19:09N 37°18' E 027°10'9 8.2
2014-Oct-21 18:04N 37°15' E 027°20'4 8.1
2014-Oct-21 17:33N 37°13' E 027°25'  
Track history (hours):
 
Tides and Currents Weather Stations Pressure Air Temp Water Temp Dewpoint Dewpoint Depression Visibility Wind Speed Wind Dir Waves Ship Positions

Cherokee

Last reported at 2014-Oct-31 13:04 UTC. Time now 2014-Oct-31 15:06 UTC.
Position N 44°18' E 036°19'.

Length 139 m; draft 3.7 m.

Type: Cargo ship. MMSI: 215059000.

Date/timePositionNaut miles runAvg speedWind from/ knotsBaromVisibWave heightAir tempDewpointWater temp
2014-Oct-31 13:04N 44°18' E 036°19'3 6.9
2014-Oct-31 12:33N 44°15' E 036°16'21 6.9
2014-Oct-31 09:31N 43°57' E 036°02'52 6.4
2014-Oct-31 01:26N 43°23' E 035°08'6 7.1
2014-Oct-31 00:31N 43°19' E 035°01'8 7.1
2014-Oct-30 23:25N 43°14' E 034°53'260 7.2
2014-Oct-29 11:33N 41°17' E 029°39'8 7.9
2014-Oct-29 10:33N 41°17' E 029°29'8 7.8
2014-Oct-29 09:33N 41°17' E 029°18'22 5.4
2014-Oct-29 05:27N 40°60' E 028°60'4 4.4
2014-Oct-29 04:31N 40°56' E 028°58'3 3.4
2014-Oct-29 03:32N 40°59' E 028°56'0 0.0
2014-Oct-29 02:26N 40°59' E 028°56'0 0.0
2014-Oct-29 01:23N 40°59' E 028°56'0 0.0
2014-Oct-29 00:29N 40°59' E 028°56'0 0.0
2014-Oct-28 23:29N 40°59' E 028°56'0 0.0
2014-Oct-28 22:05N 40°59' E 028°56'0 0.0
2014-Oct-28 21:23N 40°59' E 028°56'0 0.0
2014-Oct-28 20:29N 40°59' E 028°56'0 0.0
2014-Oct-28 19:29N 40°59' E 028°56'0 0.0
2014-Oct-28 18:29N 40°59' E 028°56'0 0.0
2014-Oct-28 17:29N 40°59' E 028°56'0 0.0
2014-Oct-28 16:33N 40°59' E 028°56'0 0.0
2014-Oct-28 15:28N 40°59' E 028°56'0 0.0
2014-Oct-28 14:16N 40°59' E 028°56'0 0.0
2014-Oct-28 13:22N 40°59' E 028°56'0 0.0
2014-Oct-28 11:23N 40°59' E 028°56'0 0.0
2014-Oct-28 08:05N 40°59' E 028°56'0 0.0
2014-Oct-26 15:27N 40°59' E 028°56'0 0.0
2014-Oct-26 14:15N 40°59' E 028°56'0 0.0
2014-Oct-26 08:26N 40°59' E 028°56'0 0.0
2014-Oct-26 07:23N 40°59' E 028°56'0 0.0
2014-Oct-26 05:29N 40°59' E 028°56'0 0.0
2014-Oct-26 04:08N 40°59' E 028°56'0 0.0
2014-Oct-26 02:32N 40°59' E 028°56'0 0.0
2014-Oct-25 14:14N 40°59' E 028°56'0 0.0
2014-Oct-25 13:22N 40°59' E 028°56'0 0.0
2014-Oct-25 12:29N 40°59' E 028°56'0 0.0
2014-Oct-25 11:29N 40°59' E 028°56'0 0.0
2014-Oct-25 10:29N 40°59' E 028°56'0 0.0
2014-Oct-25 09:29N 40°59' E 028°56'0 0.0
2014-Oct-25 08:33N 40°59' E 028°56'0 0.0
2014-Oct-25 07:32N 40°59' E 028°56'0 0.0
2014-Oct-25 06:22N 40°59' E 028°56'0 0.0
2014-Oct-25 05:16N 40°59' E 028°56'0 0.0
2014-Oct-25 04:28N 40°59' E 028°56'0 0.1
2014-Oct-25 03:16N 40°59' E 028°56'0 0.1
2014-Oct-25 02:32N 40°59' E 028°56'0 0.0
2014-Oct-25 01:26N 40°59' E 028°56'0 0.0
2014-Oct-25 00:08N 40°59' E 028°56'0 0.0
2014-Oct-24 23:26N 40°59' E 028°56'0 0.0
2014-Oct-24 21:26N 40°59' E 028°56'0 0.0
2014-Oct-24 20:08N 40°59' E 028°56'0 0.0
2014-Oct-24 19:08N 40°59' E 028°56'0 0.0
2014-Oct-24 17:32N 40°59' E 028°56'0 0.0
2014-Oct-24 16:33N 40°59' E 028°56'0 0.0
2014-Oct-24 14:26N 40°59' E 028°56'0 0.0
2014-Oct-24 13:22N 40°59' E 028°56'0 0.0
2014-Oct-24 09:25N 40°59' E 028°56'0 0.0
2014-Oct-24 08:30N 40°59' E 028°56'0 0.0
2014-Oct-24 07:18N 40°59' E 028°56'0 0.0
2014-Oct-24 05:19N 40°59' E 028°56'0 0.0
2014-Oct-24 03:19N 40°59' E 028°56'0 0.0
2014-Oct-23 19:33N 40°59' E 028°56'0 0.0
2014-Oct-23 18:21N 40°59' E 028°56'4 3.2
2014-Oct-23 17:09N 40°56' E 028°58'5 8.3
2014-Oct-23 16:33N 40°52' E 028°53'228 5.0
2014-Oct-21 19:09N 37°18' E 027°10'9 8.2
2014-Oct-21 18:04N 37°15' E 027°20'4 8.1
2014-Oct-21 17:33N 37°13' E 027°25'  

Dump ship's entire track history